sensor_id;sensor_type;location;lat;lon;timestamp;P1;durP1;ratioP1;P2;durP2;ratioP2
18983;SDS011;9626;52.552;13.436;2023-03-01T00:02:21;39.73;;;22.40;;
18983;SDS011;9626;52.552;13.436;2023-03-01T00:05:05;37.73;;;20.40;;
18983;SDS011;9626;52.552;13.436;2023-03-01T00:07:54;33.23;;;19.93;;
18983;SDS011;9626;52.552;13.436;2023-03-01T00:10:40;38.60;;;21.33;;
18983;SDS011;9626;52.552;13.436;2023-03-01T00:13:06;37.40;;;20.87;;
18983;SDS011;9626;52.552;13.436;2023-03-01T00:15:32;37.13;;;21.57;;
18983;SDS011;9626;52.552;13.436;2023-03-01T00:18:00;33.43;;;20.80;;
18983;SDS011;9626;52.552;13.436;2023-03-01T00:20:26;36.67;;;20.43;;
18983;SDS011;9626;52.552;13.436;2023-03-01T00:22:52;32.00;;;19.73;;
18983;SDS011;9626;52.552;13.436;2023-03-01T00:25:18;32.57;;;20.63;;
18983;SDS011;9626;52.552;13.436;2023-03-01T00:27:44;33.83;;;20.07;;
18983;SDS011;9626;52.552;13.436;2023-03-01T00:30:13;34.67;;;20.90;;
18983;SDS011;9626;52.552;13.436;2023-03-01T00:32:39;36.93;;;21.60;;
18983;SDS011;9626;52.552;13.436;2023-03-01T00:35:05;34.67;;;21.03;;
18983;SDS011;9626;52.552;13.436;2023-03-01T00:37:32;32.80;;;21.00;;
18983;SDS011;9626;52.552;13.436;2023-03-01T00:39:58;37.47;;;21.50;;
18983;SDS011;9626;52.552;13.436;2023-03-01T00:42:24;33.73;;;20.13;;
18983;SDS011;9626;52.552;13.436;2023-03-01T00:44:54;35.27;;;20.03;;
18983;SDS011;9626;52.552;13.436;2023-03-01T00:47:20;34.03;;;19.73;;
18983;SDS011;9626;52.552;13.436;2023-03-01T00:50:06;36.23;;;21.80;;
18983;SDS011;9626;52.552;13.436;2023-03-01T00:52:54;41.10;;;22.07;;
18983;SDS011;9626;52.552;13.436;2023-03-01T00:55:21;34.07;;;20.40;;
18983;SDS011;9626;52.552;13.436;2023-03-01T00:58:06;31.27;;;18.60;;
18983;SDS011;9626;52.552;13.436;2023-03-01T01:00:50;31.97;;;19.10;;
18983;SDS011;9626;52.552;13.436;2023-03-01T01:03:19;31.40;;;18.63;;
18983;SDS011;9626;52.552;13.436;2023-03-01T01:06:03;31.40;;;18.03;;
18983;SDS011;9626;52.552;13.436;2023-03-01T01:08:34;34.00;;;19.00;;
18983;SDS011;9626;52.552;13.436;2023-03-01T01:11:19;35.50;;;20.53;;
18983;SDS011;9626;52.552;13.436;2023-03-01T01:14:05;31.07;;;20.27;;
18983;SDS011;9626;52.552;13.436;2023-03-01T01:16:31;35.93;;;21.77;;
18983;SDS011;9626;52.552;13.436;2023-03-01T01:18:57;39.00;;;20.67;;
18983;SDS011;9626;52.552;13.436;2023-03-01T01:21:24;35.63;;;22.30;;
18983;SDS011;9626;52.552;13.436;2023-03-01T01:24:09;37.67;;;22.40;;
18983;SDS011;9626;52.552;13.436;2023-03-01T01:26:35;40.07;;;23.73;;
18983;SDS011;9626;52.552;13.436;2023-03-01T01:29:03;36.47;;;22.20;;
18983;SDS011;9626;52.552;13.436;2023-03-01T01:31:30;36.63;;;21.43;;
18983;SDS011;9626;52.552;13.436;2023-03-01T01:34:13;39.57;;;22.27;;
18983;SDS011;9626;52.552;13.436;2023-03-01T01:37:00;37.70;;;22.67;;
18983;SDS011;9626;52.552;13.436;2023-03-01T01:39:28;38.93;;;22.97;;
18983;SDS011;9626;52.552;13.436;2023-03-01T01:42:16;45.20;;;23.17;;
18983;SDS011;9626;52.552;13.436;2023-03-01T01:44:47;39.20;;;21.73;;
18983;SDS011;9626;52.552;13.436;2023-03-01T01:47:32;37.87;;;21.57;;
18983;SDS011;9626;52.552;13.436;2023-03-01T01:49:58;35.87;;;21.63;;
18983;SDS011;9626;52.552;13.436;2023-03-01T01:52:42;38.00;;;21.27;;
18983;SDS011;9626;52.552;13.436;2023-03-01T01:55:26;34.07;;;19.80;;
18983;SDS011;9626;52.552;13.436;2023-03-01T01:58:12;34.73;;;19.87;;
18983;SDS011;9626;52.552;13.436;2023-03-01T02:00:53;33.83;;;19.33;;
18983;SDS011;9626;52.552;13.436;2023-03-01T02:03:32;31.37;;;19.00;;
18983;SDS011;9626;52.552;13.436;2023-03-01T02:06:22;29.73;;;18.03;;
18983;SDS011;9626;52.552;13.436;2023-03-01T02:09:13;29.40;;;16.43;;
18983;SDS011;9626;52.552;13.436;2023-03-01T02:12:00;26.83;;;15.77;;
18983;SDS011;9626;52.552;13.436;2023-03-01T02:14:46;25.10;;;15.87;;
18983;SDS011;9626;52.552;13.436;2023-03-01T02:17:12;26.40;;;15.33;;
18983;SDS011;9626;52.552;13.436;2023-03-01T02:22:48;27.17;;;17.40;;
18983;SDS011;9626;52.552;13.436;2023-03-01T02:25:46;30.80;;;17.73;;
18983;SDS011;9626;52.552;13.436;2023-03-01T02:28:36;31.83;;;17.83;;
18983;SDS011;9626;52.552;13.436;2023-03-01T02:31:24;30.87;;;17.63;;
18983;SDS011;9626;52.552;13.436;2023-03-01T02:34:40;31.73;;;18.33;;
18983;SDS011;9626;52.552;13.436;2023-03-01T02:37:25;27.20;;;15.60;;
18983;SDS011;9626;52.552;13.436;2023-03-01T02:40:13;30.20;;;16.03;;
18983;SDS011;9626;52.552;13.436;2023-03-01T02:43:01;30.03;;;15.27;;
18983;SDS011;9626;52.552;13.436;2023-03-01T02:45:31;25.13;;;16.23;;
18983;SDS011;9626;52.552;13.436;2023-03-01T02:47:58;28.00;;;16.07;;
18983;SDS011;9626;52.552;13.436;2023-03-01T02:53:13;26.10;;;15.90;;
18983;SDS011;9626;52.552;13.436;2023-03-01T02:55:49;25.37;;;16.43;;
18983;SDS011;9626;52.552;13.436;2023-03-01T02:58:34;27.40;;;15.33;;
18983;SDS011;9626;52.552;13.436;2023-03-01T03:01:14;25.27;;;15.17;;
18983;SDS011;9626;52.552;13.436;2023-03-01T03:03:59;25.20;;;15.23;;
18983;SDS011;9626;52.552;13.436;2023-03-01T03:06:44;27.23;;;15.63;;
18983;SDS011;9626;52.552;13.436;2023-03-01T03:09:29;26.83;;;15.27;;
18983;SDS011;9626;52.552;13.436;2023-03-01T03:11:55;29.20;;;16.23;;
18983;SDS011;9626;52.552;13.436;2023-03-01T03:14:21;26.40;;;16.03;;
18983;SDS011;9626;52.552;13.436;2023-03-01T03:16:49;26.00;;;15.33;;
18983;SDS011;9626;52.552;13.436;2023-03-01T03:19:33;25.73;;;14.93;;
18983;SDS011;9626;52.552;13.436;2023-03-01T03:21:59;28.13;;;15.40;;
18983;SDS011;9626;52.552;13.436;2023-03-01T03:24:26;29.23;;;15.87;;
18983;SDS011;9626;52.552;13.436;2023-03-01T03:27:04;24.83;;;14.70;;
18983;SDS011;9626;52.552;13.436;2023-03-01T03:29:31;28.13;;;16.73;;
18983;SDS011;9626;52.552;13.436;2023-03-01T03:31:58;25.23;;;15.60;;
18983;SDS011;9626;52.552;13.436;2023-03-01T03:34:43;28.47;;;16.30;;
18983;SDS011;9626;52.552;13.436;2023-03-01T03:37:09;28.57;;;16.37;;
18983;SDS011;9626;52.552;13.436;2023-03-01T03:39:55;27.67;;;15.33;;
18983;SDS011;9626;52.552;13.436;2023-03-01T03:42:21;26.43;;;15.87;;
18983;SDS011;9626;52.552;13.436;2023-03-01T03:44:50;27.17;;;15.63;;
18983;SDS011;9626;52.552;13.436;2023-03-01T03:47:16;29.37;;;15.70;;
18983;SDS011;9626;52.552;13.436;2023-03-01T03:49:42;25.90;;;16.23;;
18983;SDS011;9626;52.552;13.436;2023-03-01T03:52:26;28.83;;;14.77;;
18983;SDS011;9626;52.552;13.436;2023-03-01T03:54:54;25.27;;;14.83;;
18983;SDS011;9626;52.552;13.436;2023-03-01T03:57:20;26.60;;;15.30;;
18983;SDS011;9626;52.552;13.436;2023-03-01T03:59:49;29.47;;;16.40;;
18983;SDS011;9626;52.552;13.436;2023-03-01T04:02:18;27.10;;;15.80;;
18983;SDS011;9626;52.552;13.436;2023-03-01T04:04:56;24.93;;;15.20;;
18983;SDS011;9626;52.552;13.436;2023-03-01T04:07:41;28.63;;;16.47;;
18983;SDS011;9626;52.552;13.436;2023-03-01T04:10:09;27.47;;;14.87;;
18983;SDS011;9626;52.552;13.436;2023-03-01T04:12:37;26.97;;;16.27;;
18983;SDS011;9626;52.552;13.436;2023-03-01T04:15:03;31.47;;;16.40;;
18983;SDS011;9626;52.552;13.436;2023-03-01T04:17:40;29.27;;;16.27;;
18983;SDS011;9626;52.552;13.436;2023-03-01T04:20:26;28.67;;;15.93;;
18983;SDS011;9626;52.552;13.436;2023-03-01T04:22:58;26.37;;;15.70;;
18983;SDS011;9626;52.552;13.436;2023-03-01T04:25:48;25.33;;;15.40;;
18983;SDS011;9626;52.552;13.436;2023-03-01T04:28:23;28.17;;;16.37;;
18983;SDS011;9626;52.552;13.436;2023-03-01T04:30:51;29.63;;;15.67;;
18983;SDS011;9626;52.552;13.436;2023-03-01T04:33:22;31.17;;;16.00;;
18983;SDS011;9626;52.552;13.436;2023-03-01T04:35:48;30.70;;;16.40;;
18983;SDS011;9626;52.552;13.436;2023-03-01T04:38:15;26.67;;;16.30;;
18983;SDS011;9626;52.552;13.436;2023-03-01T04:40:45;28.97;;;16.53;;
18983;SDS011;9626;52.552;13.436;2023-03-01T04:43:11;28.80;;;16.27;;
18983;SDS011;9626;52.552;13.436;2023-03-01T04:45:41;29.10;;;15.90;;
18983;SDS011;9626;52.552;13.436;2023-03-01T04:48:07;30.60;;;16.60;;
18983;SDS011;9626;52.552;13.436;2023-03-01T04:50:33;25.23;;;15.57;;
18983;SDS011;9626;52.552;13.436;2023-03-01T04:53:00;30.73;;;17.37;;
18983;SDS011;9626;52.552;13.436;2023-03-01T04:55:27;28.37;;;17.50;;
18983;SDS011;9626;52.552;13.436;2023-03-01T04:57:54;28.40;;;16.47;;
18983;SDS011;9626;52.552;13.436;2023-03-01T05:00:21;24.93;;;15.57;;
18983;SDS011;9626;52.552;13.436;2023-03-01T05:02:55;29.20;;;16.23;;
18983;SDS011;9626;52.552;13.436;2023-03-01T05:05:23;26.87;;;16.20;;
18983;SDS011;9626;52.552;13.436;2023-03-01T05:07:51;31.23;;;16.33;;
18983;SDS011;9626;52.552;13.436;2023-03-01T05:10:18;28.30;;;15.33;;
18983;SDS011;9626;52.552;13.436;2023-03-01T05:12:45;29.87;;;16.70;;
18983;SDS011;9626;52.552;13.436;2023-03-01T05:15:12;29.60;;;17.93;;
18983;SDS011;9626;52.552;13.436;2023-03-01T05:17:38;31.53;;;17.33;;
18983;SDS011;9626;52.552;13.436;2023-03-01T05:20:07;31.57;;;17.17;;
18983;SDS011;9626;52.552;13.436;2023-03-01T05:22:34;26.63;;;16.40;;
18983;SDS011;9626;52.552;13.436;2023-03-01T05:25:16;32.20;;;17.10;;
18983;SDS011;9626;52.552;13.436;2023-03-01T05:28:00;31.30;;;17.90;;
18983;SDS011;9626;52.552;13.436;2023-03-01T05:30:48;33.27;;;18.50;;
18983;SDS011;9626;52.552;13.436;2023-03-01T05:33:17;32.87;;;16.43;;
18983;SDS011;9626;52.552;13.436;2023-03-01T05:35:44;32.07;;;16.20;;
18983;SDS011;9626;52.552;13.436;2023-03-01T05:38:32;26.43;;;15.23;;
18983;SDS011;9626;52.552;13.436;2023-03-01T05:41:17;30.00;;;17.80;;
18983;SDS011;9626;52.552;13.436;2023-03-01T05:44:01;39.67;;;20.43;;
18983;SDS011;9626;52.552;13.436;2023-03-01T05:46:45;30.80;;;17.47;;
18983;SDS011;9626;52.552;13.436;2023-03-01T05:49:31;29.83;;;16.70;;
18983;SDS011;9626;52.552;13.436;2023-03-01T05:51:57;29.17;;;17.17;;
18983;SDS011;9626;52.552;13.436;2023-03-01T05:54:23;30.67;;;17.43;;
18983;SDS011;9626;52.552;13.436;2023-03-01T05:56:49;39.83;;;17.93;;
18983;SDS011;9626;52.552;13.436;2023-03-01T05:59:34;35.40;;;17.87;;
18983;SDS011;9626;52.552;13.436;2023-03-01T06:02:00;32.73;;;17.80;;
18983;SDS011;9626;52.552;13.436;2023-03-01T06:04:26;30.03;;;17.60;;
18983;SDS011;9626;52.552;13.436;2023-03-01T06:07:01;32.97;;;16.57;;
18983;SDS011;9626;52.552;13.436;2023-03-01T06:09:29;33.27;;;17.93;;
18983;SDS011;9626;52.552;13.436;2023-03-01T06:11:55;31.90;;;18.50;;
18983;SDS011;9626;52.552;13.436;2023-03-01T06:14:24;33.00;;;18.37;;
18983;SDS011;9626;52.552;13.436;2023-03-01T06:16:50;30.23;;;17.93;;
18983;SDS011;9626;52.552;13.436;2023-03-01T06:19:16;33.60;;;17.57;;
18983;SDS011;9626;52.552;13.436;2023-03-01T06:22:01;32.00;;;17.93;;
18983;SDS011;9626;52.552;13.436;2023-03-01T06:24:27;31.03;;;18.40;;
18983;SDS011;9626;52.552;13.436;2023-03-01T06:26:54;34.10;;;19.13;;
18983;SDS011;9626;52.552;13.436;2023-03-01T06:29:21;32.50;;;18.17;;
18983;SDS011;9626;52.552;13.436;2023-03-01T06:32:06;30.13;;;17.40;;
18983;SDS011;9626;52.552;13.436;2023-03-01T06:34:33;34.57;;;17.97;;
18983;SDS011;9626;52.552;13.436;2023-03-01T06:36:59;33.27;;;18.57;;
18983;SDS011;9626;52.552;13.436;2023-03-01T06:39:31;29.97;;;18.40;;
18983;SDS011;9626;52.552;13.436;2023-03-01T06:41:57;32.80;;;17.70;;
18983;SDS011;9626;52.552;13.436;2023-03-01T06:44:43;31.80;;;18.07;;
18983;SDS011;9626;52.552;13.436;2023-03-01T06:47:29;29.10;;;18.03;;
18983;SDS011;9626;52.552;13.436;2023-03-01T06:50:14;34.37;;;19.43;;
18983;SDS011;9626;52.552;13.436;2023-03-01T06:52:40;32.43;;;17.90;;
18983;SDS011;9626;52.552;13.436;2023-03-01T06:55:06;32.33;;;18.73;;
18983;SDS011;9626;52.552;13.436;2023-03-01T06:57:48;32.23;;;18.63;;
18983;SDS011;9626;52.552;13.436;2023-03-01T07:00:14;29.97;;;19.30;;
18983;SDS011;9626;52.552;13.436;2023-03-01T07:02:59;34.17;;;19.13;;
18983;SDS011;9626;52.552;13.436;2023-03-01T07:05:44;32.47;;;18.53;;
18983;SDS011;9626;52.552;13.436;2023-03-01T07:08:10;30.07;;;18.37;;
18983;SDS011;9626;52.552;13.436;2023-03-01T07:10:36;35.27;;;19.27;;
18983;SDS011;9626;52.552;13.436;2023-03-01T07:13:22;33.57;;;19.80;;
18983;SDS011;9626;52.552;13.436;2023-03-01T07:16:06;35.53;;;20.20;;
18983;SDS011;9626;52.552;13.436;2023-03-01T07:18:51;30.80;;;18.87;;
18983;SDS011;9626;52.552;13.436;2023-03-01T07:21:35;33.63;;;19.83;;
18983;SDS011;9626;52.552;13.436;2023-03-01T07:24:22;39.30;;;20.73;;
18983;SDS011;9626;52.552;13.436;2023-03-01T07:27:07;33.30;;;20.03;;
18983;SDS011;9626;52.552;13.436;2023-03-01T07:29:51;37.10;;;19.93;;
18983;SDS011;9626;52.552;13.436;2023-03-01T07:32:17;32.47;;;20.20;;
18983;SDS011;9626;52.552;13.436;2023-03-01T07:35:01;34.27;;;20.30;;
18983;SDS011;9626;52.552;13.436;2023-03-01T07:37:46;35.00;;;19.73;;
18983;SDS011;9626;52.552;13.436;2023-03-01T07:40:31;36.00;;;19.13;;
18983;SDS011;9626;52.552;13.436;2023-03-01T07:43:03;38.17;;;19.87;;
18983;SDS011;9626;52.552;13.436;2023-03-01T07:45:47;39.60;;;19.70;;
18983;SDS011;9626;52.552;13.436;2023-03-01T07:48:32;34.33;;;19.07;;
18983;SDS011;9626;52.552;13.436;2023-03-01T07:51:17;28.70;;;17.67;;
18983;SDS011;9626;52.552;13.436;2023-03-01T07:54:01;34.10;;;18.63;;
18983;SDS011;9626;52.552;13.436;2023-03-01T07:56:27;31.03;;;18.17;;
18983;SDS011;9626;52.552;13.436;2023-03-01T07:58:54;28.17;;;17.67;;
18983;SDS011;9626;52.552;13.436;2023-03-01T08:01:21;29.90;;;16.63;;
18983;SDS011;9626;52.552;13.436;2023-03-01T08:03:47;28.17;;;16.13;;
18983;SDS011;9626;52.552;13.436;2023-03-01T08:06:24;28.47;;;16.83;;
18983;SDS011;9626;52.552;13.436;2023-03-01T08:08:51;22.90;;;15.83;;
18983;SDS011;9626;52.552;13.436;2023-03-01T08:11:17;28.83;;;16.53;;
18983;SDS011;9626;52.552;13.436;2023-03-01T08:13:43;25.30;;;15.97;;
18983;SDS011;9626;52.552;13.436;2023-03-01T08:16:31;22.33;;;13.43;;
18983;SDS011;9626;52.552;13.436;2023-03-01T08:19:03;23.73;;;14.90;;
18983;SDS011;9626;52.552;13.436;2023-03-01T08:21:29;19.17;;;12.73;;
18983;SDS011;9626;52.552;13.436;2023-03-01T08:23:55;19.80;;;12.53;;
18983;SDS011;9626;52.552;13.436;2023-03-01T08:26:21;21.07;;;11.13;;
18983;SDS011;9626;52.552;13.436;2023-03-01T08:28:48;16.27;;;10.90;;
18983;SDS011;9626;52.552;13.436;2023-03-01T08:31:20;16.43;;;10.70;;
18983;SDS011;9626;52.552;13.436;2023-03-01T08:33:50;18.03;;;12.83;;
18983;SDS011;9626;52.552;13.436;2023-03-01T08:36:26;13.80;;;9.37;;
18983;SDS011;9626;52.552;13.436;2023-03-01T08:38:58;11.77;;;7.20;;
18983;SDS011;9626;52.552;13.436;2023-03-01T08:41:25;12.50;;;8.30;;
18983;SDS011;9626;52.552;13.436;2023-03-01T08:43:52;14.80;;;9.07;;
18983;SDS011;9626;52.552;13.436;2023-03-01T08:46:18;13.87;;;9.30;;
18983;SDS011;9626;52.552;13.436;2023-03-01T08:48:44;14.67;;;9.07;;
18983;SDS011;9626;52.552;13.436;2023-03-01T08:51:11;13.87;;;8.60;;
18983;SDS011;9626;52.552;13.436;2023-03-01T08:53:42;14.00;;;7.77;;
18983;SDS011;9626;52.552;13.436;2023-03-01T08:56:09;12.40;;;7.93;;
18983;SDS011;9626;52.552;13.436;2023-03-01T08:58:35;12.27;;;7.73;;
18983;SDS011;9626;52.552;13.436;2023-03-01T09:01:12;12.33;;;7.93;;
18983;SDS011;9626;52.552;13.436;2023-03-01T09:03:40;10.07;;;7.40;;
18983;SDS011;9626;52.552;13.436;2023-03-01T09:06:07;11.43;;;7.30;;
18983;SDS011;9626;52.552;13.436;2023-03-01T09:08:34;11.93;;;7.20;;
18983;SDS011;9626;52.552;13.436;2023-03-01T09:11:05;11.13;;;6.50;;
18983;SDS011;9626;52.552;13.436;2023-03-01T09:13:36;9.83;;;6.00;;
18983;SDS011;9626;52.552;13.436;2023-03-01T09:16:03;10.67;;;6.80;;
18983;SDS011;9626;52.552;13.436;2023-03-01T09:18:31;9.80;;;7.03;;
18983;SDS011;9626;52.552;13.436;2023-03-01T09:21:16;11.43;;;6.03;;
18983;SDS011;9626;52.552;13.436;2023-03-01T09:24:01;8.07;;;5.50;;
18983;SDS011;9626;52.552;13.436;2023-03-01T09:26:46;8.43;;;5.97;;
18983;SDS011;9626;52.552;13.436;2023-03-01T09:29:31;12.83;;;6.17;;
18983;SDS011;9626;52.552;13.436;2023-03-01T09:32:15;10.50;;;5.90;;
18983;SDS011;9626;52.552;13.436;2023-03-01T09:34:47;7.53;;;5.17;;
18983;SDS011;9626;52.552;13.436;2023-03-01T09:37:35;8.20;;;5.80;;
18983;SDS011;9626;52.552;13.436;2023-03-01T09:40:04;24.70;;;7.13;;
18983;SDS011;9626;52.552;13.436;2023-03-01T09:42:34;14.30;;;6.60;;
18983;SDS011;9626;52.552;13.436;2023-03-01T09:45:11;14.23;;;6.90;;
18983;SDS011;9626;52.552;13.436;2023-03-01T09:47:48;10.47;;;7.10;;
18983;SDS011;9626;52.552;13.436;2023-03-01T09:50:18;8.57;;;4.80;;
18983;SDS011;9626;52.552;13.436;2023-03-01T09:52:47;8.27;;;6.03;;
18983;SDS011;9626;52.552;13.436;2023-03-01T09:58:37;7.13;;;4.40;;
18983;SDS011;9626;52.552;13.436;2023-03-01T10:06:36;15.30;;;5.20;;
18983;SDS011;9626;52.552;13.436;2023-03-01T10:09:12;4.97;;;3.50;;
18983;SDS011;9626;52.552;13.436;2023-03-01T10:11:45;8.50;;;3.60;;
18983;SDS011;9626;52.552;13.436;2023-03-01T10:19:44;6.07;;;4.00;;
18983;SDS011;9626;52.552;13.436;2023-03-01T10:22:15;9.00;;;4.00;;
18983;SDS011;9626;52.552;13.436;2023-03-01T10:24:50;5.70;;;3.60;;
18983;SDS011;9626;52.552;13.436;2023-03-01T10:30:38;5.07;;;3.27;;
18983;SDS011;9626;52.552;13.436;2023-03-01T10:33:26;6.23;;;3.67;;
18983;SDS011;9626;52.552;13.436;2023-03-01T10:36:13;6.53;;;3.30;;
18983;SDS011;9626;52.552;13.436;2023-03-01T10:38:57;9.70;;;6.70;;
18983;SDS011;9626;52.552;13.436;2023-03-01T10:41:25;7.30;;;3.20;;
18983;SDS011;9626;52.552;13.436;2023-03-01T10:44:11;8.30;;;3.50;;
18983;SDS011;9626;52.552;13.436;2023-03-01T10:47:26;10.50;;;3.90;;
18983;SDS011;9626;52.552;13.436;2023-03-01T10:50:00;6.20;;;4.17;;
18983;SDS011;9626;52.552;13.436;2023-03-01T10:53:01;8.20;;;3.47;;
18983;SDS011;9626;52.552;13.436;2023-03-01T10:55:48;8.57;;;3.33;;
18983;SDS011;9626;52.552;13.436;2023-03-01T10:58:56;6.00;;;2.97;;
18983;SDS011;9626;52.552;13.436;2023-03-01T11:01:27;11.80;;;6.00;;
18983;SDS011;9626;52.552;13.436;2023-03-01T11:04:13;6.87;;;3.10;;
18983;SDS011;9626;52.552;13.436;2023-03-01T11:07:00;6.80;;;3.03;;
18983;SDS011;9626;52.552;13.436;2023-03-01T11:09:46;5.83;;;2.70;;
18983;SDS011;9626;52.552;13.436;2023-03-01T11:12:27;6.60;;;3.30;;
18983;SDS011;9626;52.552;13.436;2023-03-01T11:15:20;3.77;;;2.37;;
18983;SDS011;9626;52.552;13.436;2023-03-01T11:17:48;4.60;;;2.50;;
18983;SDS011;9626;52.552;13.436;2023-03-01T11:20:37;7.37;;;2.57;;
18983;SDS011;9626;52.552;13.436;2023-03-01T11:23:21;9.63;;;2.77;;
18983;SDS011;9626;52.552;13.436;2023-03-01T11:25:53;4.10;;;2.27;;
18983;SDS011;9626;52.552;13.436;2023-03-01T11:28:40;6.30;;;2.63;;
18983;SDS011;9626;52.552;13.436;2023-03-01T11:31:23;7.90;;;3.07;;
18983;SDS011;9626;52.552;13.436;2023-03-01T11:34:13;7.10;;;2.70;;
18983;SDS011;9626;52.552;13.436;2023-03-01T11:37:01;10.37;;;2.90;;
18983;SDS011;9626;52.552;13.436;2023-03-01T11:39:51;4.73;;;2.63;;
18983;SDS011;9626;52.552;13.436;2023-03-01T11:42:44;11.13;;;2.70;;
18983;SDS011;9626;52.552;13.436;2023-03-01T11:45:38;5.70;;;2.80;;
18983;SDS011;9626;52.552;13.436;2023-03-01T11:51:27;4.63;;;2.63;;
18983;SDS011;9626;52.552;13.436;2023-03-01T11:54:38;7.57;;;2.80;;
18983;SDS011;9626;52.552;13.436;2023-03-01T12:01:09;6.17;;;2.43;;
18983;SDS011;9626;52.552;13.436;2023-03-01T12:21:12;21.97;;;5.53;;
18983;SDS011;9626;52.552;13.436;2023-03-01T12:32:34;5.10;;;2.77;;
18983;SDS011;9626;52.552;13.436;2023-03-01T12:38:42;14.40;;;3.50;;
18983;SDS011;9626;52.552;13.436;2023-03-01T12:44:01;11.97;;;4.13;;
18983;SDS011;9626;52.552;13.436;2023-03-01T12:49:34;4.47;;;2.60;;
18983;SDS011;9626;52.552;13.436;2023-03-01T12:55:01;3.77;;;2.30;;
18983;SDS011;9626;52.552;13.436;2023-03-01T12:57:36;4.77;;;2.60;;
18983;SDS011;9626;52.552;13.436;2023-03-01T13:05:29;60.50;;;8.13;;
18983;SDS011;9626;52.552;13.436;2023-03-01T13:10:43;3.73;;;2.50;;
18983;SDS011;9626;52.552;13.436;2023-03-01T13:13:24;44.27;;;7.90;;
18983;SDS011;9626;52.552;13.436;2023-03-01T13:15:52;21.13;;;4.47;;
18983;SDS011;9626;52.552;13.436;2023-03-01T13:20:48;9.47;;;2.90;;
18983;SDS011;9626;52.552;13.436;2023-03-01T13:26:17;16.77;;;4.23;;
18983;SDS011;9626;52.552;13.436;2023-03-01T13:31:10;6.13;;;2.87;;
18983;SDS011;9626;52.552;13.436;2023-03-01T13:33:53;6.80;;;2.70;;
18983;SDS011;9626;52.552;13.436;2023-03-01T13:38:57;174.57;;;19.00;;
18983;SDS011;9626;52.552;13.436;2023-03-01T13:44:25;27.53;;;4.67;;
18983;SDS011;9626;52.552;13.436;2023-03-01T13:46:56;41.93;;;5.90;;
18983;SDS011;9626;52.552;13.436;2023-03-01T13:49:27;4.63;;;2.90;;
18983;SDS011;9626;52.552;13.436;2023-03-01T13:51:57;2.83;;;2.50;;
18983;SDS011;9626;52.552;13.436;2023-03-01T13:54:41;8.13;;;2.70;;
18983;SDS011;9626;52.552;13.436;2023-03-01T13:57:28;17.63;;;4.97;;
18983;SDS011;9626;52.552;13.436;2023-03-01T14:00:25;13.00;;;3.67;;
18983;SDS011;9626;52.552;13.436;2023-03-01T14:06:06;4.03;;;2.60;;
18983;SDS011;9626;52.552;13.436;2023-03-01T14:11:52;3.80;;;2.33;;
18983;SDS011;9626;52.552;13.436;2023-03-01T14:14:59;4.57;;;2.27;;
18983;SDS011;9626;52.552;13.436;2023-03-01T14:20:43;5.40;;;2.67;;
18983;SDS011;9626;52.552;13.436;2023-03-01T14:23:34;3.17;;;2.63;;
18983;SDS011;9626;52.552;13.436;2023-03-01T14:26:07;3.07;;;2.60;;
18983;SDS011;9626;52.552;13.436;2023-03-01T14:28:34;3.60;;;2.50;;
18983;SDS011;9626;52.552;13.436;2023-03-01T14:31:29;4.43;;;2.40;;
18983;SDS011;9626;52.552;13.436;2023-03-01T14:34:03;8.13;;;3.33;;
18983;SDS011;9626;52.552;13.436;2023-03-01T14:36:31;10.87;;;3.40;;
18983;SDS011;9626;52.552;13.436;2023-03-01T14:38:59;14.23;;;4.00;;
18983;SDS011;9626;52.552;13.436;2023-03-01T14:41:34;4.63;;;2.70;;
18983;SDS011;9626;52.552;13.436;2023-03-01T14:44:21;8.63;;;2.93;;
18983;SDS011;9626;52.552;13.436;2023-03-01T14:46:52;6.90;;;3.03;;
18983;SDS011;9626;52.552;13.436;2023-03-01T14:49:21;7.13;;;4.67;;
18983;SDS011;9626;52.552;13.436;2023-03-01T14:52:00;6.43;;;2.60;;
18983;SDS011;9626;52.552;13.436;2023-03-01T14:54:42;4.50;;;2.63;;
18983;SDS011;9626;52.552;13.436;2023-03-01T14:59:44;3.37;;;2.37;;
18983;SDS011;9626;52.552;13.436;2023-03-01T15:02:30;4.57;;;2.63;;
18983;SDS011;9626;52.552;13.436;2023-03-01T15:05:15;4.57;;;2.60;;
18983;SDS011;9626;52.552;13.436;2023-03-01T15:07:48;6.00;;;2.27;;
18983;SDS011;9626;52.552;13.436;2023-03-01T15:10:36;7.67;;;2.90;;
18983;SDS011;9626;52.552;13.436;2023-03-01T15:13:22;3.87;;;2.87;;
18983;SDS011;9626;52.552;13.436;2023-03-01T15:15:50;6.30;;;2.60;;
18983;SDS011;9626;52.552;13.436;2023-03-01T15:18:25;5.77;;;2.70;;
18983;SDS011;9626;52.552;13.436;2023-03-01T15:20:53;6.03;;;5.17;;
18983;SDS011;9626;52.552;13.436;2023-03-01T15:25:51;5.00;;;3.00;;
18983;SDS011;9626;52.552;13.436;2023-03-01T15:28:49;7.47;;;2.77;;
18983;SDS011;9626;52.552;13.436;2023-03-01T15:31:24;5.53;;;2.87;;
18983;SDS011;9626;52.552;13.436;2023-03-01T15:34:19;10.57;;;3.50;;
18983;SDS011;9626;52.552;13.436;2023-03-01T15:36:58;5.27;;;2.80;;
18983;SDS011;9626;52.552;13.436;2023-03-01T15:47:46;5.87;;;2.83;;
18983;SDS011;9626;52.552;13.436;2023-03-01T15:50:36;7.83;;;3.10;;
18983;SDS011;9626;52.552;13.436;2023-03-01T15:53:10;7.07;;;4.07;;
18983;SDS011;9626;52.552;13.436;2023-03-01T15:55:40;4.47;;;2.80;;
18983;SDS011;9626;52.552;13.436;2023-03-01T15:58:10;8.70;;;3.57;;
18983;SDS011;9626;52.552;13.436;2023-03-01T16:00:39;5.10;;;3.30;;
18983;SDS011;9626;52.552;13.436;2023-03-01T16:03:06;6.57;;;3.37;;
18983;SDS011;9626;52.552;13.436;2023-03-01T16:05:35;7.30;;;2.80;;
18983;SDS011;9626;52.552;13.436;2023-03-01T16:08:02;5.40;;;3.30;;
18983;SDS011;9626;52.552;13.436;2023-03-01T16:10:41;11.37;;;8.13;;
18983;SDS011;9626;52.552;13.436;2023-03-01T16:13:12;14.27;;;9.07;;
18983;SDS011;9626;52.552;13.436;2023-03-01T16:15:57;11.80;;;7.90;;
18983;SDS011;9626;52.552;13.436;2023-03-01T16:18:23;11.83;;;9.40;;
18983;SDS011;9626;52.552;13.436;2023-03-01T16:20:51;14.10;;;8.73;;
18983;SDS011;9626;52.552;13.436;2023-03-01T16:23:37;10.30;;;8.30;;
18983;SDS011;9626;52.552;13.436;2023-03-01T16:26:22;8.23;;;6.40;;
18983;SDS011;9626;52.552;13.436;2023-03-01T16:29:07;7.67;;;4.77;;
18983;SDS011;9626;52.552;13.436;2023-03-01T16:31:42;8.90;;;3.67;;
18983;SDS011;9626;52.552;13.436;2023-03-01T16:34:08;12.37;;;8.43;;
18983;SDS011;9626;52.552;13.436;2023-03-01T16:36:38;6.57;;;3.43;;
18983;SDS011;9626;52.552;13.436;2023-03-01T16:39:08;6.33;;;3.43;;
18983;SDS011;9626;52.552;13.436;2023-03-01T16:41:34;9.13;;;4.53;;
18983;SDS011;9626;52.552;13.436;2023-03-01T16:44:01;4.97;;;2.83;;
18983;SDS011;9626;52.552;13.436;2023-03-01T16:46:45;12.47;;;3.60;;
18983;SDS011;9626;52.552;13.436;2023-03-01T16:49:29;14.53;;;3.97;;
18983;SDS011;9626;52.552;13.436;2023-03-01T16:51:55;12.30;;;5.20;;
18983;SDS011;9626;52.552;13.436;2023-03-01T16:54:39;14.97;;;4.23;;
18983;SDS011;9626;52.552;13.436;2023-03-01T16:57:14;11.50;;;4.53;;
18983;SDS011;9626;52.552;13.436;2023-03-01T16:59:41;13.67;;;7.53;;
18983;SDS011;9626;52.552;13.436;2023-03-01T17:02:09;20.80;;;7.67;;
18983;SDS011;9626;52.552;13.436;2023-03-01T17:04:40;12.60;;;6.13;;
18983;SDS011;9626;52.552;13.436;2023-03-01T17:07:06;13.10;;;5.13;;
18983;SDS011;9626;52.552;13.436;2023-03-01T17:09:51;12.43;;;5.83;;
18983;SDS011;9626;52.552;13.436;2023-03-01T17:12:29;14.93;;;4.70;;
18983;SDS011;9626;52.552;13.436;2023-03-01T17:14:57;15.70;;;6.57;;